Thunder radar more information blitzortung!


Radar de pluja more information rain snow radar


Visita la nostra xarxa de llocs de meteo:

Template documentation
and downloads

And another site



No particular awareness of the weather is required.    There are no Weather-warnings

Pagina Historial Weather Underground text

Diari Resum Octubre 14, 2017 Unitats:  Tant    Imperial   Mètric
« Previous Dia
SegĂźent Dia »
Diari Setmana Mensual Anual Personalitzada
  Maxima: Minima: Media:
Temperatura: 75.7 °F /  24.3 °C 59.9 °F /  15.5 °C 66.4 °F /  19.1 °C
Punt de rosada: 63.1 °F /  17.3 °C 57.2 °F /  14.0 °C 59.4 °F /  15.2 °C
Humitat: 93 % 57 % 79 %
Wind Speed: 10.4 mph /  16.7 km/h - 2.7 mph /  4.3 km/h
RĂ fegues de vent: 10.4 mph /  16.7 km/h - -
Vent:- - ESE
Pression baro: 30.4 in /  1028.0 hPa 30.3 in /  1026.0 hPa -
Precipitacions: 0 in /  0.0 mm    
Historical Graphs
 
 
Dades de taula per Octubre 14, 2017
Temps Temperatura Punt de rosada Pression baro Vent Wind Speed RĂ fegues de vent Humitat Rainfall Rate (Hourly)
00:04 64.4 °F /  18.0 °C 58.8 °F /  14.9 °C 30.3 in /  1026.0 hPa SW 2.3 mph /  3.7 km/h 2.3 mph /  3.7 km/h 82 % 0 in /  0.0 mm
00:09 64.4 °F /  18.0 °C 58.8 °F /  14.9 °C 30.3 in /  1026.0 hPa SW 2 mph /  3.2 km/h   82 % 0 in /  0.0 mm
00:14 64.2 °F /  17.9 °C 58.8 °F /  14.9 °C 30.3 in /  1026.0 hPa SW 2.3 mph /  3.7 km/h 2.3 mph /  3.7 km/h 83 % 0 in /  0.0 mm
00:19 64 °F /  17.8 °C 58.8 °F /  14.9 °C 30.3 in /  1026.0 hPa SW 1.4 mph /  2.3 km/h 1.6 mph /  2.6 km/h 83 % 0 in /  0.0 mm
00:24 64 °F /  17.8 °C 59.2 °F /  15.1 °C 30.3 in /  1026.0 hPa SW 1.2 mph /  1.9 km/h   84 % 0 in /  0.0 mm
00:29 64 °F /  17.8 °C 59.2 °F /  15.1 °C 30.3 in /  1026.0 hPa SW 1.2 mph /  1.9 km/h   84 % 0 in /  0.0 mm
00:34 63.9 °F /  17.7 °C 58.8 °F /  14.9 °C 30.3 in /  1026.0 hPa SW 1.2 mph /  1.9 km/h   84 % 0 in /  0.0 mm
00:39 63.7 °F /  17.6 °C 58.8 °F /  14.9 °C 30.3 in /  1026.0 hPa Calm     84 % 0 in /  0.0 mm
00:44 63.7 °F /  17.6 °C 59.2 °F /  15.1 °C 30.3 in /  1026.0 hPa WSW 1.2 mph /  1.9 km/h   85 % 0 in /  0.0 mm
00:49 63.7 °F /  17.6 °C 59.2 °F /  15.1 °C 30.3 in /  1026.0 hPa Calm     85 % 0 in /  0.0 mm
00:54 63.7 °F /  17.6 °C 59.2 °F /  15.1 °C 30.3 in /  1026.0 hPa Calm     85 % 0 in /  0.0 mm
00:59 63.5 °F /  17.5 °C 58.8 °F /  14.9 °C 30.3 in /  1026.0 hPa Calm     85 % 0 in /  0.0 mm
01:04 63.1 °F /  17.3 °C 58.6 °F /  14.8 °C 30.3 in /  1026.0 hPa Calm     85 % 0 in /  0.0 mm
01:05 63.1 °F /  17.3 °C 58.6 °F /  14.8 °C 30.3 in /  1026.0 hPa Calm     85 % 0 in /  0.0 mm
01:10 63.1 °F /  17.3 °C 58.8 °F /  14.9 °C 30.3 in /  1026.0 hPa NNW 1.2 mph /  1.9 km/h 1.4 mph /  2.3 km/h 86 % 0 in /  0.0 mm
01:15 63.1 °F /  17.3 °C 58.8 °F /  14.9 °C 30.3 in /  1026.0 hPa NNE 1.2 mph /  1.9 km/h 1.2 mph /  1.9 km/h 86 % 0 in /  0.0 mm
01:20 63.1 °F /  17.3 °C 58.8 °F /  14.9 °C 30.3 in /  1026.0 hPa Calm     86 % 0 in /  0.0 mm
01:25 63.1 °F /  17.3 °C 58.8 °F /  14.9 °C 30.3 in /  1026.0 hPa Calm     86 % 0 in /  0.0 mm
01:30 63.1 °F /  17.3 °C 58.8 °F /  14.9 °C 30.3 in /  1026.0 hPa NNE 1.2 mph /  1.9 km/h 1.2 mph /  1.9 km/h 86 % 0 in /  0.0 mm
01:35 63 °F /  17.2 °C 58.6 °F /  14.8 °C 30.3 in /  1026.0 hPa Calm     86 % 0 in /  0.0 mm
01:40 62.8 °F /  17.1 °C 58.5 °F /  14.7 °C 30.3 in /  1026.0 hPa Calm     86 % 0 in /  0.0 mm
01:45 62.8 °F /  17.1 °C 58.5 °F /  14.7 °C 30.3 in /  1026.0 hPa Calm     86 % 0 in /  0.0 mm
01:50 62.6 °F /  17.0 °C 58.5 °F /  14.7 °C 30.3 in /  1026.0 hPa Calm     86 % 0 in /  0.0 mm
01:55 62.4 °F /  16.9 °C 58.5 °F /  14.7 °C 30.3 in /  1026.0 hPa Calm     87 % 0 in /  0.0 mm
02:00 62.2 °F /  16.8 °C 58.3 °F /  14.6 °C 30.3 in /  1026.0 hPa Calm     87 % 0 in /  0.0 mm
02:05 62.2 °F /  16.8 °C 58.3 °F /  14.6 °C 30.3 in /  1026.0 hPa WNW 2.3 mph /  3.7 km/h 2.3 mph /  3.7 km/h 87 % 0 in /  0.0 mm
02:10 62.2 °F /  16.8 °C 58.3 °F /  14.6 °C 30.3 in /  1026.0 hPa WNW 1.2 mph /  1.9 km/h 1.2 mph /  1.9 km/h 87 % 0 in /  0.0 mm
02:15 62.2 °F /  16.8 °C 58.3 °F /  14.6 °C 30.3 in /  1026.0 hPa WNW 1.2 mph /  1.9 km/h 1.2 mph /  1.9 km/h 87 % 0 in /  0.0 mm
02:20 62.2 °F /  16.8 °C 58.6 °F /  14.8 °C 30.3 in /  1026.0 hPa Calm     88 % 0 in /  0.0 mm
02:25 62.2 °F /  16.8 °C 58.6 °F /  14.8 °C 30.3 in /  1026.0 hPa Calm     88 % 0 in /  0.0 mm
02:30 62.1 °F /  16.7 °C 58.5 °F /  14.7 °C 30.3 in /  1026.0 hPa Calm     88 % 0 in /  0.0 mm
02:35 62.1 °F /  16.7 °C 58.5 °F /  14.7 °C 30.3 in /  1026.0 hPa Calm     88 % 0 in /  0.0 mm
02:40 62.1 °F /  16.7 °C 58.5 °F /  14.7 °C 30.3 in /  1026.0 hPa Calm     88 % 0 in /  0.0 mm
02:45 61.9 °F /  16.6 °C 58.3 °F /  14.6 °C 30.3 in /  1027.0 hPa Calm     88 % 0 in /  0.0 mm
02:50 61.9 °F /  16.6 °C 58.3 °F /  14.6 °C 30.3 in /  1027.0 hPa Calm     88 % 0 in /  0.0 mm
02:55 61.9 °F /  16.6 °C 58.3 °F /  14.6 °C 30.3 in /  1027.0 hPa Calm     88 % 0 in /  0.0 mm
03:00 61.9 °F /  16.6 °C 58.6 °F /  14.8 °C 30.3 in /  1026.0 hPa Calm     89 % 0 in /  0.0 mm
03:05 61.9 °F /  16.6 °C 58.6 °F /  14.8 °C 30.3 in /  1026.0 hPa Calm     89 % 0 in /  0.0 mm
03:10 61.7 °F /  16.5 °C 58.5 °F /  14.7 °C 30.3 in /  1026.0 hPa Calm     89 % 0 in /  0.0 mm
03:15 61.9 °F /  16.6 °C 58.6 °F /  14.8 °C 30.3 in /  1026.0 hPa WNW 2.3 mph /  3.7 km/h   89 % 0 in /  0.0 mm
03:20 62.1 °F /  16.7 °C 58.8 °F /  14.9 °C 30.3 in /  1026.0 hPa Calm     89 % 0 in /  0.0 mm
03:25 62.1 °F /  16.7 °C 59.2 °F /  15.1 °C 30.3 in /  1026.0 hPa Calm     90 % 0 in /  0.0 mm
03:30 62.1 °F /  16.7 °C 59.2 °F /  15.1 °C 30.3 in /  1026.0 hPa Calm     90 % 0 in /  0.0 mm
03:35 62.1 °F /  16.7 °C 59.2 °F /  15.1 °C 30.3 in /  1026.0 hPa Calm     90 % 0 in /  0.0 mm
03:40 62.1 °F /  16.7 °C 59.2 °F /  15.1 °C 30.3 in /  1026.0 hPa Calm     90 % 0 in /  0.0 mm
03:45 62.1 °F /  16.7 °C 59.2 °F /  15.1 °C 30.3 in /  1026.0 hPa Calm     90 % 0 in /  0.0 mm
03:50 61.9 °F /  16.6 °C 58.8 °F /  14.9 °C 30.3 in /  1026.0 hPa Calm     90 % 0 in /  0.0 mm
03:55 61.9 °F /  16.6 °C 58.8 °F /  14.9 °C 30.3 in /  1026.0 hPa Calm     90 % 0 in /  0.0 mm
04:00 62.1 °F /  16.7 °C 59.2 °F /  15.1 °C 30.3 in /  1026.0 hPa Calm     90 % 0 in /  0.0 mm
04:05 61.9 °F /  16.6 °C 58.8 °F /  14.9 °C 30.3 in /  1026.0 hPa Calm     90 % 0 in /  0.0 mm
04:10 61.9 °F /  16.6 °C 58.8 °F /  14.9 °C 30.3 in /  1026.0 hPa NNE 1.2 mph /  1.9 km/h 1.2 mph /  1.9 km/h 90 % 0 in /  0.0 mm
04:15 61.3 °F /  16.3 °C 58.5 °F /  14.7 °C 30.3 in /  1026.0 hPa NNE 1.6 mph /  2.6 km/h 1.6 mph /  2.6 km/h 90 % 0 in /  0.0 mm
04:20 61.3 °F /  16.3 °C 58.5 °F /  14.7 °C 30.3 in /  1026.0 hPa NNE 1.4 mph /  2.3 km/h 1.4 mph /  2.3 km/h 90 % 0 in /  0.0 mm
04:25 61.5 °F /  16.4 °C 58.6 °F /  14.8 °C 30.3 in /  1026.0 hPa Calm     90 % 0 in /  0.0 mm
04:30 60.8 °F /  16.0 °C 57.7 °F /  14.3 °C 30.3 in /  1026.0 hPa West 2.3 mph /  3.7 km/h 2.3 mph /  3.7 km/h 90 % 0 in /  0.0 mm
04:35 60.4 °F /  15.8 °C 57.2 °F /  14.0 °C 30.3 in /  1026.0 hPa SW 2.3 mph /  3.7 km/h 2.3 mph /  3.7 km/h 89 % 0 in /  0.0 mm
04:40 60.6 °F /  15.9 °C 57.7 °F /  14.3 °C 30.3 in /  1026.0 hPa SSE 1.2 mph /  1.9 km/h 1.2 mph /  1.9 km/h 90 % 0 in /  0.0 mm
04:45 60.8 °F /  16.0 °C 57.7 °F /  14.3 °C 30.3 in /  1026.0 hPa Calm     90 % 0 in /  0.0 mm
04:50 60.4 °F /  15.8 °C 57.6 °F /  14.2 °C 30.3 in /  1026.0 hPa Calm     90 % 0 in /  0.0 mm
04:55 60.6 °F /  15.9 °C 57.7 °F /  14.3 °C 30.3 in /  1026.0 hPa Calm     90 % 0 in /  0.0 mm
05:00 60.6 °F /  15.9 °C 57.7 °F /  14.3 °C 30.3 in /  1026.0 hPa Calm     90 % 0 in /  0.0 mm
05:05 60.4 °F /  15.8 °C 57.6 °F /  14.2 °C 30.3 in /  1026.0 hPa Calm     90 % 0 in /  0.0 mm
05:10 60.4 °F /  15.8 °C 57.6 °F /  14.2 °C 30.3 in /  1026.0 hPa Calm     90 % 0 in /  0.0 mm
05:15 60.3 °F /  15.7 °C 57.4 °F /  14.1 °C 30.3 in /  1026.0 hPa Calm     90 % 0 in /  0.0 mm
05:20 60.3 °F /  15.7 °C 57.6 °F /  14.2 °C 30.3 in /  1026.0 hPa Calm     91 % 0 in /  0.0 mm
05:22 60.3 °F /  15.7 °C 57.6 °F /  14.2 °C 30.3 in /  1026.0 hPa Calm     91 % 0 in /  0.0 mm
05:27 60.1 °F /  15.6 °C 57.4 °F /  14.1 °C 30.3 in /  1026.0 hPa Calm     91 % 0 in /  0.0 mm
05:32 60.1 °F /  15.6 °C 57.4 °F /  14.1 °C 30.3 in /  1026.0 hPa Calm     91 % 0 in /  0.0 mm
05:37 60.3 °F /  15.7 °C 57.6 °F /  14.2 °C 30.3 in /  1026.0 hPa Calm     91 % 0 in /  0.0 mm
05:42 60.3 °F /  15.7 °C 57.6 °F /  14.2 °C 30.3 in /  1026.0 hPa Calm     91 % 0 in /  0.0 mm
05:47 60.1 °F /  15.6 °C 57.4 °F /  14.1 °C 30.3 in /  1026.0 hPa Calm     91 % 0 in /  0.0 mm
05:52 60.1 °F /  15.6 °C 57.4 °F /  14.1 °C 30.3 in /  1026.0 hPa South 1.2 mph /  1.9 km/h 1.2 mph /  1.9 km/h 91 % 0 in /  0.0 mm
05:57 60.1 °F /  15.6 °C 57.4 °F /  14.1 °C 30.3 in /  1026.0 hPa Calm     91 % 0 in /  0.0 mm
06:02 60.1 °F /  15.6 °C 57.4 °F /  14.1 °C 30.3 in /  1026.0 hPa Calm     91 % 0 in /  0.0 mm
06:07 60.1 °F /  15.6 °C 57.4 °F /  14.1 °C 30.3 in /  1026.0 hPa Calm     91 % 0 in /  0.0 mm
06:13 60.1 °F /  15.6 °C 57.7 °F /  14.3 °C 30.3 in /  1026.0 hPa Calm     92 % 0 in /  0.0 mm
06:18 60.1 °F /  15.6 °C 57.7 °F /  14.3 °C 30.3 in /  1026.0 hPa Calm     92 % 0 in /  0.0 mm
06:23 60.3 °F /  15.7 °C 57.9 °F /  14.4 °C 30.3 in /  1026.0 hPa Calm     92 % 0 in /  0.0 mm
06:28 60.4 °F /  15.8 °C 58.1 °F /  14.5 °C 30.3 in /  1026.0 hPa Calm     92 % 0 in /  0.0 mm
06:33 60.4 °F /  15.8 °C 58.1 °F /  14.5 °C 30.3 in /  1026.0 hPa Calm     92 % 0 in /  0.0 mm
06:38 60.4 °F /  15.8 °C 58.1 °F /  14.5 °C 30.3 in /  1026.0 hPa Calm     92 % 0 in /  0.0 mm
06:43 60.6 °F /  15.9 °C 58.3 °F /  14.6 °C 30.3 in /  1026.0 hPa Calm     92 % 0 in /  0.0 mm
06:48 60.6 °F /  15.9 °C 58.3 °F /  14.6 °C 30.3 in /  1026.0 hPa Calm     92 % 0 in /  0.0 mm
06:53 60.8 °F /  16.0 °C 58.8 °F /  14.9 °C 30.3 in /  1026.0 hPa Calm     93 % 0 in /  0.0 mm
06:58 60.8 °F /  16.0 °C 58.8 °F /  14.9 °C 30.3 in /  1027.0 hPa Calm     93 % 0 in /  0.0 mm
07:03 60.8 °F /  16.0 °C 58.8 °F /  14.9 °C 30.3 in /  1027.0 hPa ENE 1.4 mph /  2.3 km/h   93 % 0 in /  0.0 mm
07:08 60.8 °F /  16.0 °C 58.5 °F /  14.7 °C 30.3 in /  1027.0 hPa NE 2.3 mph /  3.7 km/h 2.3 mph /  3.7 km/h 92 % 0 in /  0.0 mm
07:13 60.8 °F /  16.0 °C 58.5 °F /  14.7 °C 30.3 in /  1026.0 hPa Calm     92 % 0 in /  0.0 mm
07:18 60.8 °F /  16.0 °C 58.5 °F /  14.7 °C 30.3 in /  1026.0 hPa NE 1.4 mph /  2.3 km/h   92 % 0 in /  0.0 mm
07:23 60.6 °F /  15.9 °C 58.3 °F /  14.6 °C 30.3 in /  1026.0 hPa NE 1.2 mph /  1.9 km/h   92 % 0 in /  0.0 mm
07:28 60.6 °F /  15.9 °C 58.3 °F /  14.6 °C 30.3 in /  1026.0 hPa Calm     92 % 0 in /  0.0 mm
07:33 60.4 °F /  15.8 °C 58.1 °F /  14.5 °C 30.3 in /  1026.0 hPa Calm     92 % 0 in /  0.0 mm
07:38 60.3 °F /  15.7 °C 57.9 °F /  14.4 °C 30.3 in /  1026.0 hPa SSE 1.2 mph /  1.9 km/h   92 % 0 in /  0.0 mm
07:43 60.1 °F /  15.6 °C 57.7 °F /  14.3 °C 30.3 in /  1027.0 hPa Calm     92 % 0 in /  0.0 mm
07:48 60.1 °F /  15.6 °C 57.7 °F /  14.3 °C 30.3 in /  1027.0 hPa Calm     92 % 0 in /  0.0 mm
07:53 60.1 °F /  15.6 °C 57.7 °F /  14.3 °C 30.3 in /  1027.0 hPa Calm     92 % 0 in /  0.0 mm
07:58 59.9 °F /  15.5 °C 57.6 °F /  14.2 °C 30.3 in /  1026.0 hPa Calm     92 % 0 in /  0.0 mm
08:03 59.9 °F /  15.5 °C 57.6 °F /  14.2 °C 30.3 in /  1026.0 hPa Calm     92 % 0 in /  0.0 mm
08:08 59.9 °F /  15.5 °C 57.6 °F /  14.2 °C 30.3 in /  1026.0 hPa Calm     92 % 0 in /  0.0 mm
08:13 60.1 °F /  15.6 °C 57.7 °F /  14.3 °C 30.3 in /  1027.0 hPa Calm     92 % 0 in /  0.0 mm
08:18 60.1 °F /  15.6 °C 57.7 °F /  14.3 °C 30.3 in /  1027.0 hPa Calm     92 % 0 in /  0.0 mm
08:23 60.1 °F /  15.6 °C 57.7 °F /  14.3 °C 30.3 in /  1027.0 hPa Calm     92 % 0 in /  0.0 mm
08:28 60.1 °F /  15.6 °C 57.7 °F /  14.3 °C 30.3 in /  1027.0 hPa Calm     92 % 0 in /  0.0 mm
08:33 60.3 °F /  15.7 °C 57.9 °F /  14.4 °C 30.3 in /  1027.0 hPa Calm     92 % 0 in /  0.0 mm
08:38 60.6 °F /  15.9 °C 58.3 °F /  14.6 °C 30.3 in /  1027.0 hPa NNE 3.6 mph /  5.8 km/h 3.6 mph /  5.8 km/h 92 % 0 in /  0.0 mm
08:43 60.8 °F /  16.0 °C 58.5 °F /  14.7 °C 30.3 in /  1027.0 hPa NNW 1.2 mph /  1.9 km/h 1.4 mph /  2.3 km/h 92 % 0 in /  0.0 mm
08:48 60.8 °F /  16.0 °C 58.5 °F /  14.7 °C 30.3 in /  1027.0 hPa Calm     92 % 0 in /  0.0 mm
08:53 60.8 °F /  16.0 °C 58.5 °F /  14.7 °C 30.3 in /  1027.0 hPa Calm     92 % 0 in /  0.0 mm
08:58 60.8 °F /  16.0 °C 58.3 °F /  14.6 °C 30.3 in /  1027.0 hPa WSW 1.2 mph /  1.9 km/h 1.2 mph /  1.9 km/h 91 % 0 in /  0.0 mm
09:03 60.8 °F /  16.0 °C 58.5 °F /  14.7 °C 30.3 in /  1027.0 hPa Calm     92 % 0 in /  0.0 mm
09:08 61 °F /  16.1 °C 58.6 °F /  14.8 °C 30.3 in /  1027.0 hPa NNE 3.5 mph /  5.6 km/h 3.5 mph /  5.6 km/h 92 % 0 in /  0.0 mm
09:13 61.2 °F /  16.2 °C 58.8 °F /  14.9 °C 30.3 in /  1027.0 hPa ENE 3.5 mph /  5.6 km/h 3.5 mph /  5.6 km/h 92 % 0 in /  0.0 mm
09:18 61.3 °F /  16.3 °C 58.6 °F /  14.8 °C 30.3 in /  1027.0 hPa ENE 3.5 mph /  5.6 km/h 3.5 mph /  5.6 km/h 91 % 0 in /  0.0 mm
09:23 61.5 °F /  16.4 °C 58.8 °F /  14.9 °C 30.3 in /  1027.0 hPa Calm     91 % 0 in /  0.0 mm
09:28 61.5 °F /  16.4 °C 58.8 °F /  14.9 °C 30.4 in /  1028.0 hPa SE 2.3 mph /  3.7 km/h 2.3 mph /  3.7 km/h 91 % 0 in /  0.0 mm
09:33 61.9 °F /  16.6 °C 59.2 °F /  15.1 °C 30.4 in /  1028.0 hPa ENE 2.3 mph /  3.7 km/h 2.3 mph /  3.7 km/h 91 % 0 in /  0.0 mm
09:38 61.9 °F /  16.6 °C 59.2 °F /  15.1 °C 30.4 in /  1028.0 hPa ENE 2.3 mph /  3.7 km/h 2.3 mph /  3.7 km/h 91 % 0 in /  0.0 mm
09:43 62.1 °F /  16.7 °C 59.2 °F /  15.1 °C 30.3 in /  1027.0 hPa East 2 mph /  3.2 km/h   90 % 0 in /  0.0 mm
09:48 62.2 °F /  16.8 °C 59.4 °F /  15.2 °C 30.3 in /  1027.0 hPa East 1.2 mph /  1.9 km/h 1.2 mph /  1.9 km/h 90 % 0 in /  0.0 mm
09:53 62.6 °F /  17.0 °C 59.5 °F /  15.3 °C 30.3 in /  1027.0 hPa SW 2.3 mph /  3.7 km/h 2.3 mph /  3.7 km/h 90 % 0 in /  0.0 mm
09:58 62.8 °F /  17.1 °C 59.7 °F /  15.4 °C 30.4 in /  1028.0 hPa ENE 2.3 mph /  3.7 km/h 2.3 mph /  3.7 km/h 90 % 0 in /  0.0 mm
10:03 63.1 °F /  17.3 °C 59.7 °F /  15.4 °C 30.4 in /  1028.0 hPa Calm     89 % 0 in /  0.0 mm
10:18 64 °F /  17.8 °C 60.4 °F /  15.8 °C 30.4 in /  1028.0 hPa ENE 2.3 mph /  3.7 km/h 2.3 mph /  3.7 km/h 88 % 0 in /  0.0 mm
10:23 64.2 °F /  17.9 °C 60.6 °F /  15.9 °C 30.4 in /  1028.0 hPa ENE 3.5 mph /  5.6 km/h 3.5 mph /  5.6 km/h 88 % 0 in /  0.0 mm
10:28 64.6 °F /  18.1 °C 60.6 °F /  15.9 °C 30.4 in /  1028.0 hPa ESE 3.5 mph /  5.6 km/h 3.5 mph /  5.6 km/h 87 % 0 in /  0.0 mm
10:33 64.8 °F /  18.2 °C 60.4 °F /  15.8 °C 30.4 in /  1028.0 hPa East 3.5 mph /  5.6 km/h 3.5 mph /  5.6 km/h 86 % 0 in /  0.0 mm
10:38 64.9 °F /  18.3 °C 60.6 °F /  15.9 °C 30.4 in /  1028.0 hPa NE 4.6 mph /  7.4 km/h 4.6 mph /  7.4 km/h 86 % 0 in /  0.0 mm
10:48 65.3 °F /  18.5 °C 60.6 °F /  15.9 °C 30.3 in /  1027.0 hPa NNE 4.6 mph /  7.4 km/h 4.6 mph /  7.4 km/h 85 % 0 in /  0.0 mm
10:53 65.7 °F /  18.7 °C 60.6 °F /  15.9 °C 30.3 in /  1027.0 hPa NNE 3.5 mph /  5.6 km/h 3.5 mph /  5.6 km/h 84 % 0 in /  0.0 mm
10:58 66 °F /  18.9 °C 61 °F /  16.1 °C 30.4 in /  1028.0 hPa ENE 3.5 mph /  5.6 km/h 3.5 mph /  5.6 km/h 84 % 0 in /  0.0 mm
11:03 66.2 °F /  19.0 °C 61 °F /  16.1 °C 30.4 in /  1028.0 hPa East 3.5 mph /  5.6 km/h 3.5 mph /  5.6 km/h 83 % 0 in /  0.0 mm
11:08 66.4 °F /  19.1 °C 61.2 °F /  16.2 °C 30.4 in /  1028.0 hPa WNW 2.3 mph /  3.7 km/h 2.3 mph /  3.7 km/h 83 % 0 in /  0.0 mm
11:13 66.7 °F /  19.3 °C 61.2 °F /  16.2 °C 30.4 in /  1028.0 hPa NE 3.5 mph /  5.6 km/h 3.5 mph /  5.6 km/h 82 % 0 in /  0.0 mm
11:18 67.1 °F /  19.5 °C 61.3 °F /  16.3 °C 30.4 in /  1028.0 hPa NNE 3.6 mph /  5.8 km/h 3.6 mph /  5.8 km/h 82 % 0 in /  0.0 mm
11:23 67.3 °F /  19.6 °C 61.2 °F /  16.2 °C 30.4 in /  1028.0 hPa NNE 3.5 mph /  5.6 km/h 3.5 mph /  5.6 km/h 81 % 0 in /  0.0 mm
11:28 67.8 °F /  19.9 °C 61.9 °F /  16.6 °C 30.4 in /  1028.0 hPa ENE 1.6 mph /  2.6 km/h 1.6 mph /  2.6 km/h 81 % 0 in /  0.0 mm
11:33 68.2 °F /  20.1 °C 61.9 °F /  16.6 °C 30.4 in /  1028.0 hPa ENE 2.3 mph /  3.7 km/h 2.3 mph /  3.7 km/h 80 % 0 in /  0.0 mm
11:38 68.4 °F /  20.2 °C 61.5 °F /  16.4 °C 30.4 in /  1028.0 hPa East 2.9 mph /  4.7 km/h 2.9 mph /  4.7 km/h 79 % 0 in /  0.0 mm
11:43 68.5 °F /  20.3 °C 61.3 °F /  16.3 °C 30.4 in /  1028.0 hPa East 4 mph /  6.4 km/h 4 mph /  6.4 km/h 78 % 0 in /  0.0 mm
11:48 68.7 °F /  20.4 °C 61.5 °F /  16.4 °C 30.4 in /  1028.0 hPa NNE 4.6 mph /  7.4 km/h 4.6 mph /  7.4 km/h 78 % 0 in /  0.0 mm
11:53 68.9 °F /  20.5 °C 61.9 °F /  16.6 °C 30.4 in /  1028.0 hPa ENE 5.8 mph /  9.3 km/h 5.8 mph /  9.3 km/h 78 % 0 in /  0.0 mm
11:58 69.3 °F /  20.7 °C 61.7 °F /  16.5 °C 30.4 in /  1028.0 hPa ESE 6.9 mph /  11.1 km/h 6.9 mph /  11.1 km/h 77 % 0 in /  0.0 mm
12:03 69.4 °F /  20.8 °C 61.9 °F /  16.6 °C 30.4 in /  1028.0 hPa East 3.5 mph /  5.6 km/h 3.5 mph /  5.6 km/h 77 % 0 in /  0.0 mm
12:08 69.6 °F /  20.9 °C 61.7 °F /  16.5 °C 30.4 in /  1028.0 hPa ENE 3.5 mph /  5.6 km/h 3.5 mph /  5.6 km/h 76 % 0 in /  0.0 mm
12:13 70 °F /  21.1 °C 61.7 °F /  16.5 °C 30.4 in /  1028.0 hPa ENE 4.6 mph /  7.4 km/h 4.6 mph /  7.4 km/h 75 % 0 in /  0.0 mm
12:18 70.3 °F /  21.3 °C 61.7 °F /  16.5 °C 30.4 in /  1028.0 hPa ESE 2.4 mph /  3.9 km/h 2.4 mph /  3.9 km/h 74 % 0 in /  0.0 mm
12:23 70.9 °F /  21.6 °C 62.6 °F /  17.0 °C 30.4 in /  1028.0 hPa NNE 3.6 mph /  5.8 km/h 3.6 mph /  5.8 km/h 75 % 0 in /  0.0 mm
12:28 71.2 °F /  21.8 °C 62.4 °F /  16.9 °C 30.4 in /  1028.0 hPa SE 4.6 mph /  7.4 km/h 4.6 mph /  7.4 km/h 74 % 0 in /  0.0 mm
12:33 71.4 °F /  21.9 °C 62.2 °F /  16.8 °C 30.4 in /  1028.0 hPa SE 5.8 mph /  9.3 km/h 5.8 mph /  9.3 km/h 73 % 0 in /  0.0 mm
12:38 71.4 °F /  21.9 °C 62.2 °F /  16.8 °C 30.4 in /  1028.0 hPa ESE 2.6 mph /  4.2 km/h 2.6 mph /  4.2 km/h 73 % 0 in /  0.0 mm
12:43 71.6 °F /  22.0 °C 61.7 °F /  16.5 °C 30.4 in /  1028.0 hPa ENE 4.6 mph /  7.4 km/h 4.6 mph /  7.4 km/h 71 % 0 in /  0.0 mm
12:48 71.8 °F /  22.1 °C 61.5 °F /  16.4 °C 30.4 in /  1028.0 hPa ESE 4.6 mph /  7.4 km/h 4.6 mph /  7.4 km/h 70 % 0 in /  0.0 mm
12:53 72 °F /  22.2 °C 61.5 °F /  16.4 °C 30.4 in /  1028.0 hPa ESE 6.9 mph /  11.1 km/h 6.9 mph /  11.1 km/h 70 % 0 in /  0.0 mm
12:58 72.3 °F /  22.4 °C 61.5 °F /  16.4 °C 30.4 in /  1028.0 hPa NNE 5.8 mph /  9.3 km/h 5.8 mph /  9.3 km/h 69 % 0 in /  0.0 mm
13:03 73.9 °F /  23.3 °C 63.1 °F /  17.3 °C 30.4 in /  1028.0 hPa ESE 3.8 mph /  6.1 km/h 3.8 mph /  6.1 km/h 69 % 0 in /  0.0 mm
13:08 73.6 °F /  23.1 °C 61.9 °F /  16.6 °C 30.4 in /  1028.0 hPa ENE 4.6 mph /  7.4 km/h 4.6 mph /  7.4 km/h 67 % 0 in /  0.0 mm
13:13 73.6 °F /  23.1 °C 61.2 °F /  16.2 °C 30.4 in /  1028.0 hPa SE 6.9 mph /  11.1 km/h 6.9 mph /  11.1 km/h 65 % 0 in /  0.0 mm
13:18 73 °F /  22.8 °C 61 °F /  16.1 °C 30.4 in /  1028.0 hPa ESE 5.8 mph /  9.3 km/h 5.8 mph /  9.3 km/h 66 % 0 in /  0.0 mm
13:23 73 °F /  22.8 °C 61 °F /  16.1 °C 30.4 in /  1028.0 hPa ESE 2.3 mph /  3.7 km/h 2.3 mph /  3.7 km/h 66 % 0 in /  0.0 mm
13:28 73.4 °F /  23.0 °C 61.3 °F /  16.3 °C 30.4 in /  1028.0 hPa ENE 5.4 mph /  8.7 km/h 5.4 mph /  8.7 km/h 66 % 0 in /  0.0 mm
13:33 73.2 °F /  22.9 °C 60.6 °F /  15.9 °C 30.4 in /  1028.0 hPa East 8.1 mph /  13.0 km/h 8.1 mph /  13.0 km/h 65 % 0 in /  0.0 mm
13:38 73 °F /  22.8 °C 61 °F /  16.1 °C 30.4 in /  1028.0 hPa East 5.8 mph /  9.3 km/h 5.8 mph /  9.3 km/h 66 % 0 in /  0.0 mm
13:43 73.4 °F /  23.0 °C 61.3 °F /  16.3 °C 30.4 in /  1028.0 hPa ESE 3.5 mph /  5.6 km/h 3.5 mph /  5.6 km/h 66 % 0 in /  0.0 mm
13:48 73.2 °F /  22.9 °C 60.6 °F /  15.9 °C 30.4 in /  1028.0 hPa ESE 4.3 mph /  6.9 km/h 4.3 mph /  6.9 km/h 65 % 0 in /  0.0 mm
13:53 73 °F /  22.8 °C 61 °F /  16.1 °C 30.4 in /  1028.0 hPa ESE 5.8 mph /  9.3 km/h 5.8 mph /  9.3 km/h 66 % 0 in /  0.0 mm
13:58 72.9 °F /  22.7 °C 60.4 °F /  15.8 °C 30.4 in /  1028.0 hPa SE 5.8 mph /  9.3 km/h 5.8 mph /  9.3 km/h 65 % 0 in /  0.0 mm
14:03 73.2 °F /  22.9 °C 61.2 °F /  16.2 °C 30.4 in /  1028.0 hPa ESE 4 mph /  6.4 km/h 4 mph /  6.4 km/h 66 % 0 in /  0.0 mm
14:08 73.2 °F /  22.9 °C 61.2 °F /  16.2 °C 30.4 in /  1028.0 hPa ESE 3.5 mph /  5.6 km/h 3.5 mph /  5.6 km/h 66 % 0 in /  0.0 mm
14:13 73.2 °F /  22.9 °C 60.6 °F /  15.9 °C 30.4 in /  1028.0 hPa ESE 5.8 mph /  9.3 km/h 5.8 mph /  9.3 km/h 65 % 0 in /  0.0 mm
14:18 73 °F /  22.8 °C 60.6 °F /  15.9 °C 30.4 in /  1028.0 hPa ESE 4.6 mph /  7.4 km/h 4.6 mph /  7.4 km/h 65 % 0 in /  0.0 mm
14:23 72.9 °F /  22.7 °C 60.1 °F /  15.6 °C 30.4 in /  1028.0 hPa ESE 5.8 mph /  9.3 km/h 5.8 mph /  9.3 km/h 64 % 0 in /  0.0 mm
14:28 73.4 °F /  23.0 °C 61 °F /  16.1 °C 30.4 in /  1028.0 hPa ENE 4.9 mph /  7.9 km/h 4.9 mph /  7.9 km/h 65 % 0 in /  0.0 mm
14:33 73.4 °F /  23.0 °C 61 °F /  16.1 °C 30.4 in /  1028.0 hPa ESE 5.8 mph /  9.3 km/h 5.8 mph /  9.3 km/h 65 % 0 in /  0.0 mm
14:38 73.6 °F /  23.1 °C 60.6 °F /  15.9 °C 30.4 in /  1028.0 hPa ENE 5.8 mph /  9.3 km/h 5.8 mph /  9.3 km/h 64 % 0 in /  0.0 mm
14:43 73.8 °F /  23.2 °C 60.8 °F /  16.0 °C 30.4 in /  1028.0 hPa SE 10.4 mph /  16.7 km/h 10.4 mph /  16.7 km/h 64 % 0 in /  0.0 mm
14:48 73.4 °F /  23.0 °C 60.4 °F /  15.8 °C 30.4 in /  1028.0 hPa East 5.8 mph /  9.3 km/h 5.8 mph /  9.3 km/h 64 % 0 in /  0.0 mm
14:53 73.6 °F /  23.1 °C 60.6 °F /  15.9 °C 30.4 in /  1028.0 hPa East 5.8 mph /  9.3 km/h 5.8 mph /  9.3 km/h 64 % 0 in /  0.0 mm
14:58 73.4 °F /  23.0 °C 60.4 °F /  15.8 °C 30.3 in /  1027.0 hPa ESE 4.7 mph /  7.6 km/h 4.7 mph /  7.6 km/h 64 % 0 in /  0.0 mm
15:03 73.2 °F /  22.9 °C 60.3 °F /  15.7 °C 30.3 in /  1027.0 hPa ESE 6.9 mph /  11.1 km/h 6.9 mph /  11.1 km/h 64 % 0 in /  0.0 mm
15:08 73.4 °F /  23.0 °C 60.4 °F /  15.8 °C 30.3 in /  1027.0 hPa ENE 8.1 mph /  13.0 km/h 8.1 mph /  13.0 km/h 64 % 0 in /  0.0 mm
15:13 73.6 °F /  23.1 °C 61.2 °F /  16.2 °C 30.3 in /  1027.0 hPa ENE 5.8 mph /  9.3 km/h 5.8 mph /  9.3 km/h 65 % 0 in /  0.0 mm
15:18 73.6 °F /  23.1 °C 60.6 °F /  15.9 °C 30.3 in /  1027.0 hPa ESE 6.4 mph /  10.3 km/h 6.4 mph /  10.3 km/h 64 % 0 in /  0.0 mm
15:23 73.8 °F /  23.2 °C 61.3 °F /  16.3 °C 30.3 in /  1027.0 hPa East 9.2 mph /  14.8 km/h 9.2 mph /  14.8 km/h 65 % 0 in /  0.0 mm
15:28 73.8 °F /  23.2 °C 60.8 °F /  16.0 °C 30.3 in /  1027.0 hPa ESE 5.8 mph /  9.3 km/h 5.8 mph /  9.3 km/h 64 % 0 in /  0.0 mm
15:33 74.1 °F /  23.4 °C 61.2 °F /  16.2 °C 30.3 in /  1027.0 hPa NNE 5.9 mph /  9.5 km/h 5.9 mph /  9.5 km/h 64 % 0 in /  0.0 mm
15:38 74.7 °F /  23.7 °C 61.7 °F /  16.5 °C 30.3 in /  1027.0 hPa East 6.9 mph /  11.1 km/h 6.9 mph /  11.1 km/h 64 % 0 in /  0.0 mm
15:43 74.8 °F /  23.8 °C 61.9 °F /  16.6 °C 30.3 in /  1027.0 hPa NNE 8.1 mph /  13.0 km/h 8.1 mph /  13.0 km/h 64 % 0 in /  0.0 mm
15:44 74.5 °F /  23.6 °C 61.2 °F /  16.2 °C 30.3 in /  1027.0 hPa NNE 5.8 mph /  9.3 km/h 5.8 mph /  9.3 km/h 63 % 0 in /  0.0 mm
15:49 74.7 °F /  23.7 °C 61.2 °F /  16.2 °C 30.3 in /  1027.0 hPa ESE 4.6 mph /  7.4 km/h 4.6 mph /  7.4 km/h 63 % 0 in /  0.0 mm
15:54 74.8 °F /  23.8 °C 60.4 °F /  15.8 °C 30.3 in /  1027.0 hPa East 8.1 mph /  13.0 km/h 8.1 mph /  13.0 km/h 61 % 0 in /  0.0 mm
15:59 75.6 °F /  24.2 °C 60.6 °F /  15.9 °C 30.3 in /  1027.0 hPa ESE 4.6 mph /  7.4 km/h 4.6 mph /  7.4 km/h 60 % 0 in /  0.0 mm
16:04 75.4 °F /  24.1 °C 60.1 °F /  15.6 °C 30.3 in /  1027.0 hPa ESE 8.1 mph /  13.0 km/h 8.1 mph /  13.0 km/h 59 % 0 in /  0.0 mm
16:09 75.2 °F /  24.0 °C 59.4 °F /  15.2 °C 30.3 in /  1027.0 hPa SE 8.1 mph /  13.0 km/h 8.1 mph /  13.0 km/h 58 % 0 in /  0.0 mm
16:14 75.7 °F /  24.3 °C 59.4 °F /  15.2 °C 30.3 in /  1027.0 hPa SE 4.6 mph /  7.4 km/h 4.6 mph /  7.4 km/h 57 % 0 in /  0.0 mm
16:19 75.7 °F /  24.3 °C 59.4 °F /  15.2 °C 30.3 in /  1027.0 hPa SSE 5.8 mph /  9.3 km/h 5.8 mph /  9.3 km/h 57 % 0 in /  0.0 mm
16:24 75.6 °F /  24.2 °C 59.4 °F /  15.2 °C 30.3 in /  1027.0 hPa East 6.9 mph /  11.1 km/h 6.9 mph /  11.1 km/h 57 % 0 in /  0.0 mm
16:29 75.7 °F /  24.3 °C 59.4 °F /  15.2 °C 30.3 in /  1027.0 hPa East 8.1 mph /  13.0 km/h 8.1 mph /  13.0 km/h 57 % 0 in /  0.0 mm
16:34 75.4 °F /  24.1 °C 60.1 °F /  15.6 °C 30.3 in /  1027.0 hPa South 3.5 mph /  5.6 km/h 3.5 mph /  5.6 km/h 59 % 0 in /  0.0 mm
16:39 75.2 °F /  24.0 °C 59.4 °F /  15.2 °C 30.3 in /  1027.0 hPa SE 8.1 mph /  13.0 km/h 8.1 mph /  13.0 km/h 58 % 0 in /  0.0 mm
16:44 75.2 °F /  24.0 °C 59.9 °F /  15.5 °C 30.3 in /  1027.0 hPa East 6.9 mph /  11.1 km/h 6.9 mph /  11.1 km/h 59 % 0 in /  0.0 mm
16:49 74.7 °F /  23.7 °C 59.9 °F /  15.5 °C 30.3 in /  1027.0 hPa SE 6.9 mph /  11.1 km/h 6.9 mph /  11.1 km/h 60 % 0 in /  0.0 mm
16:54 74.7 °F /  23.7 °C 59.9 °F /  15.5 °C 30.3 in /  1027.0 hPa ESE 6.4 mph /  10.3 km/h 6.4 mph /  10.3 km/h 60 % 0 in /  0.0 mm
16:59 74.7 °F /  23.7 °C 59.9 °F /  15.5 °C 30.3 in /  1026.0 hPa SSW 5.8 mph /  9.3 km/h 5.8 mph /  9.3 km/h 60 % 0 in /  0.0 mm
17:04 74.8 °F /  23.8 °C 60.1 °F /  15.6 °C 30.3 in /  1026.0 hPa ESE 8.1 mph /  13.0 km/h 8.1 mph /  13.0 km/h 60 % 0 in /  0.0 mm
17:09 73.9 °F /  23.3 °C 59.2 °F /  15.1 °C 30.3 in /  1026.0 hPa ESE 8.1 mph /  13.0 km/h 8.1 mph /  13.0 km/h 60 % 0 in /  0.0 mm
17:14 74.3 °F /  23.5 °C 60.1 °F /  15.6 °C 30.3 in /  1026.0 hPa SE 3.5 mph /  5.6 km/h 3.5 mph /  5.6 km/h 61 % 0 in /  0.0 mm
17:19 74.3 °F /  23.5 °C 60.1 °F /  15.6 °C 30.3 in /  1026.0 hPa SSE 8.1 mph /  13.0 km/h 8.1 mph /  13.0 km/h 61 % 0 in /  0.0 mm
17:24 73.9 °F /  23.3 °C 59.5 °F /  15.3 °C 30.3 in /  1026.0 hPa SSE 5.8 mph /  9.3 km/h 5.8 mph /  9.3 km/h 61 % 0 in /  0.0 mm
17:29 73.4 °F /  23.0 °C 59.2 °F /  15.1 °C 30.3 in /  1026.0 hPa SSE 6.9 mph /  11.1 km/h 6.9 mph /  11.1 km/h 61 % 0 in /  0.0 mm
17:34 73.8 °F /  23.2 °C 59.5 °F /  15.3 °C 30.3 in /  1026.0 hPa ESE 7.4 mph /  11.9 km/h 7.4 mph /  11.9 km/h 61 % 0 in /  0.0 mm
17:39 73.4 °F /  23.0 °C 59.2 °F /  15.1 °C 30.3 in /  1026.0 hPa East 5.6 mph /  9.0 km/h 5.6 mph /  9.0 km/h 61 % 0 in /  0.0 mm
17:44 73.6 °F /  23.1 °C 59.4 °F /  15.2 °C 30.3 in /  1026.0 hPa SSE 5.8 mph /  9.3 km/h 5.8 mph /  9.3 km/h 61 % 0 in /  0.0 mm
17:49 73.4 °F /  23.0 °C 59.2 °F /  15.1 °C 30.3 in /  1026.0 hPa South 5.8 mph /  9.3 km/h 5.8 mph /  9.3 km/h 61 % 0 in /  0.0 mm
17:54 73 °F /  22.8 °C 59.2 °F /  15.1 °C 30.3 in /  1026.0 hPa SE 8.1 mph /  13.0 km/h 8.1 mph /  13.0 km/h 62 % 0 in /  0.0 mm
17:59 72.7 °F /  22.6 °C 59.4 °F /  15.2 °C 30.3 in /  1026.0 hPa ENE 8.1 mph /  13.0 km/h 8.1 mph /  13.0 km/h 63 % 0 in /  0.0 mm
18:04 72.5 °F /  22.5 °C 59.2 °F /  15.1 °C 30.3 in /  1026.0 hPa ENE 6.9 mph /  11.1 km/h 6.9 mph /  11.1 km/h 63 % 0 in /  0.0 mm
18:09 72.1 °F /  22.3 °C 58.8 °F /  14.9 °C 30.3 in /  1026.0 hPa SE 8.1 mph /  13.0 km/h 8.1 mph /  13.0 km/h 63 % 0 in /  0.0 mm
18:14 71.8 °F /  22.1 °C 58.8 °F /  14.9 °C 30.3 in /  1027.0 hPa ESE 6.4 mph /  10.3 km/h 6.4 mph /  10.3 km/h 64 % 0 in /  0.0 mm
18:19 71.6 °F /  22.0 °C 59.2 °F /  15.1 °C 30.3 in /  1027.0 hPa ENE 6.9 mph /  11.1 km/h 6.9 mph /  11.1 km/h 65 % 0 in /  0.0 mm
18:24 71.4 °F /  21.9 °C 59.5 °F /  15.3 °C 30.3 in /  1027.0 hPa ESE 5.8 mph /  9.3 km/h 5.8 mph /  9.3 km/h 66 % 0 in /  0.0 mm
18:29 71.2 °F /  21.8 °C 59.4 °F /  15.2 °C 30.3 in /  1026.0 hPa East 4.9 mph /  7.9 km/h 4.9 mph /  7.9 km/h 66 % 0 in /  0.0 mm
18:34 71.1 °F /  21.7 °C 59.2 °F /  15.1 °C 30.3 in /  1026.0 hPa East 9.2 mph /  14.8 km/h 9.2 mph /  14.8 km/h 66 % 0 in /  0.0 mm
18:39 70.9 °F /  21.6 °C 59 °F /  15.0 °C 30.3 in /  1026.0 hPa SE 5.8 mph /  9.3 km/h 5.8 mph /  9.3 km/h 66 % 0 in /  0.0 mm
18:44 70.7 °F /  21.5 °C 59.2 °F /  15.1 °C 30.3 in /  1026.0 hPa ESE 3.5 mph /  5.6 km/h 3.5 mph /  5.6 km/h 67 % 0 in /  0.0 mm
18:49 70.5 °F /  21.4 °C 59 °F /  15.0 °C 30.3 in /  1026.0 hPa NE 5.8 mph /  9.3 km/h 5.8 mph /  9.3 km/h 67 % 0 in /  0.0 mm
18:54 70.2 °F /  21.2 °C 58.6 °F /  14.8 °C 30.3 in /  1026.0 hPa ENE 5.8 mph /  9.3 km/h 5.8 mph /  9.3 km/h 67 % 0 in /  0.0 mm
18:59 70 °F /  21.1 °C 58.8 °F /  14.9 °C 30.3 in /  1026.0 hPa ESE 4.6 mph /  7.4 km/h 4.6 mph /  7.4 km/h 68 % 0 in /  0.0 mm
19:04 69.8 °F /  21.0 °C 58.8 °F /  14.9 °C 30.3 in /  1026.0 hPa ESE 6.9 mph /  11.1 km/h 6.9 mph /  11.1 km/h 68 % 0 in /  0.0 mm
19:09 69.4 °F /  20.8 °C 58.8 °F /  14.9 °C 30.3 in /  1026.0 hPa ESE 4.6 mph /  7.4 km/h 4.6 mph /  7.4 km/h 69 % 0 in /  0.0 mm
19:14 69.3 °F /  20.7 °C 59.2 °F /  15.1 °C 30.3 in /  1027.0 hPa ESE 4.6 mph /  7.4 km/h 4.6 mph /  7.4 km/h 70 % 0 in /  0.0 mm
19:19 69.1 °F /  20.6 °C 58.8 °F /  14.9 °C 30.3 in /  1027.0 hPa SE 6.9 mph /  11.1 km/h 6.9 mph /  11.1 km/h 70 % 0 in /  0.0 mm
19:24 68.9 °F /  20.5 °C 59.2 °F /  15.1 °C 30.3 in /  1027.0 hPa East 4.3 mph /  6.9 km/h 4.3 mph /  6.9 km/h 71 % 0 in /  0.0 mm
19:29 68.7 °F /  20.4 °C 58.8 °F /  14.9 °C 30.3 in /  1027.0 hPa ESE 6.9 mph /  11.1 km/h 6.9 mph /  11.1 km/h 71 % 0 in /  0.0 mm
19:34 68.7 °F /  20.4 °C 58.8 °F /  14.9 °C 30.3 in /  1027.0 hPa ESE 5.4 mph /  8.7 km/h 5.4 mph /  8.7 km/h 71 % 0 in /  0.0 mm
19:39 68.5 °F /  20.3 °C 59.2 °F /  15.1 °C 30.3 in /  1027.0 hPa ESE 5.8 mph /  9.3 km/h 5.8 mph /  9.3 km/h 72 % 0 in /  0.0 mm
19:44 68.4 °F /  20.2 °C 59 °F /  15.0 °C 30.3 in /  1027.0 hPa East 3.5 mph /  5.6 km/h 3.5 mph /  5.6 km/h 72 % 0 in /  0.0 mm
19:49 68.4 °F /  20.2 °C 59.4 °F /  15.2 °C 30.3 in /  1027.0 hPa ESE 5.6 mph /  9.0 km/h 5.6 mph /  9.0 km/h 73 % 0 in /  0.0 mm
19:54 68.2 °F /  20.1 °C 59.2 °F /  15.1 °C 30.3 in /  1027.0 hPa NE 4.6 mph /  7.4 km/h 4.6 mph /  7.4 km/h 73 % 0 in /  0.0 mm
19:59 68 °F /  20.0 °C 59 °F /  15.0 °C 30.3 in /  1027.0 hPa ESE 5.4 mph /  8.7 km/h 5.4 mph /  8.7 km/h 73 % 0 in /  0.0 mm
20:04 68 °F /  20.0 °C 59.4 °F /  15.2 °C 30.3 in /  1027.0 hPa ESE 4.6 mph /  7.4 km/h 4.6 mph /  7.4 km/h 74 % 0 in /  0.0 mm
20:09 67.8 °F /  19.9 °C 59.5 °F /  15.3 °C 30.3 in /  1027.0 hPa ENE 4.6 mph /  7.4 km/h 4.6 mph /  7.4 km/h 75 % 0 in /  0.0 mm
20:14 67.6 °F /  19.8 °C 59.4 °F /  15.2 °C 30.3 in /  1027.0 hPa ENE 2.4 mph /  3.9 km/h 2.4 mph /  3.9 km/h 75 % 0 in /  0.0 mm
20:19 67.6 °F /  19.8 °C 59.4 °F /  15.2 °C 30.3 in /  1027.0 hPa ENE 2.3 mph /  3.7 km/h 2.3 mph /  3.7 km/h 75 % 0 in /  0.0 mm
20:24 67.5 °F /  19.7 °C 59.5 °F /  15.3 °C 30.3 in /  1027.0 hPa ESE 2.9 mph /  4.7 km/h 2.9 mph /  4.7 km/h 76 % 0 in /  0.0 mm
20:29 67.3 °F /  19.6 °C 59.5 °F /  15.3 °C 30.4 in /  1028.0 hPa East 2.6 mph /  4.2 km/h 2.6 mph /  4.2 km/h 76 % 0 in /  0.0 mm
20:35 67.3 °F /  19.6 °C 59.5 °F /  15.3 °C 30.4 in /  1028.0 hPa East 3.5 mph /  5.6 km/h 3.5 mph /  5.6 km/h 76 % 0 in /  0.0 mm
20:40 67.1 °F /  19.5 °C 59.4 °F /  15.2 °C 30.4 in /  1028.0 hPa NNE 3.5 mph /  5.6 km/h 3.5 mph /  5.6 km/h 76 % 0 in /  0.0 mm
20:45 67.1 °F /  19.5 °C 59.4 °F /  15.2 °C 30.3 in /  1027.0 hPa ENE 3.5 mph /  5.6 km/h 3.5 mph /  5.6 km/h 76 % 0 in /  0.0 mm
20:50 66.9 °F /  19.4 °C 59.5 °F /  15.3 °C 30.3 in /  1027.0 hPa NNE 2.3 mph /  3.7 km/h 2.3 mph /  3.7 km/h 77 % 0 in /  0.0 mm
20:55 66.7 °F /  19.3 °C 59.4 °F /  15.2 °C 30.3 in /  1027.0 hPa NNE 2.3 mph /  3.7 km/h 2.3 mph /  3.7 km/h 77 % 0 in /  0.0 mm
21:00 66.7 °F /  19.3 °C 59.4 °F /  15.2 °C 30.4 in /  1028.0 hPa NE 1.6 mph /  2.6 km/h 1.6 mph /  2.6 km/h 77 % 0 in /  0.0 mm
21:05 66.7 °F /  19.3 °C 59.4 °F /  15.2 °C 30.4 in /  1028.0 hPa NNE 3.1 mph /  5.0 km/h 3.1 mph /  5.0 km/h 77 % 0 in /  0.0 mm
21:10 66.6 °F /  19.2 °C 59.2 °F /  15.1 °C 30.4 in /  1028.0 hPa NE 2.9 mph /  4.7 km/h 2.9 mph /  4.7 km/h 77 % 0 in /  0.0 mm
21:15 66.6 °F /  19.2 °C 59.2 °F /  15.1 °C 30.4 in /  1028.0 hPa NE 2.4 mph /  3.9 km/h 2.6 mph /  4.2 km/h 77 % 0 in /  0.0 mm
21:20 66.4 °F /  19.1 °C 58.8 °F /  14.9 °C 30.4 in /  1028.0 hPa NNE 2.3 mph /  3.7 km/h 2.3 mph /  3.7 km/h 77 % 0 in /  0.0 mm
21:25 66.2 °F /  19.0 °C 58.8 °F /  14.9 °C 30.4 in /  1028.0 hPa North 2.3 mph /  3.7 km/h 2.3 mph /  3.7 km/h 77 % 0 in /  0.0 mm
21:30 66 °F /  18.9 °C 59 °F /  15.0 °C 30.3 in /  1027.0 hPa NE 2.3 mph /  3.7 km/h 2.3 mph /  3.7 km/h 78 % 0 in /  0.0 mm
21:35 65.8 °F /  18.8 °C 58.8 °F /  14.9 °C 30.3 in /  1027.0 hPa NNE 1.6 mph /  2.6 km/h 1.6 mph /  2.6 km/h 78 % 0 in /  0.0 mm
21:40 65.7 °F /  18.7 °C 58.6 °F /  14.8 °C 30.3 in /  1027.0 hPa NNE 1.4 mph /  2.3 km/h 1.4 mph /  2.3 km/h 78 % 0 in /  0.0 mm
21:45 65.5 °F /  18.6 °C 58.5 °F /  14.7 °C 30.4 in /  1028.0 hPa ENE 1.2 mph /  1.9 km/h   78 % 0 in /  0.0 mm
21:50 65.5 °F /  18.6 °C 58.8 °F /  14.9 °C 30.4 in /  1028.0 hPa NNE 1.2 mph /  1.9 km/h 1.2 mph /  1.9 km/h 79 % 0 in /  0.0 mm
21:55 65.3 °F /  18.5 °C 58.6 °F /  14.8 °C 30.4 in /  1028.0 hPa Calm   1.2 mph /  1.9 km/h 79 % 0 in /  0.0 mm
22:00 65.3 °F /  18.5 °C 58.6 °F /  14.8 °C 30.4 in /  1028.0 hPa NNE 1.2 mph /  1.9 km/h 1.4 mph /  2.3 km/h 79 % 0 in /  0.0 mm
22:05 65.3 °F /  18.5 °C 58.6 °F /  14.8 °C 30.4 in /  1028.0 hPa Calm     79 % 0 in /  0.0 mm
22:10 65.1 °F /  18.4 °C 58.5 °F /  14.7 °C 30.4 in /  1028.0 hPa Calm     79 % 0 in /  0.0 mm
22:15 65.1 °F /  18.4 °C 58.5 °F /  14.7 °C 30.4 in /  1028.0 hPa Calm     79 % 0 in /  0.0 mm
22:20 65.1 °F /  18.4 °C 58.5 °F /  14.7 °C 30.4 in /  1028.0 hPa Calm     79 % 0 in /  0.0 mm
22:25 65.1 °F /  18.4 °C 58.8 °F /  14.9 °C 30.4 in /  1028.0 hPa Calm     80 % 0 in /  0.0 mm
22:30 65.1 °F /  18.4 °C 58.8 °F /  14.9 °C 30.4 in /  1028.0 hPa Calm     80 % 0 in /  0.0 mm
22:35 64.9 °F /  18.3 °C 58.6 °F /  14.8 °C 30.4 in /  1028.0 hPa Calm     80 % 0 in /  0.0 mm
22:40 64.9 °F /  18.3 °C 58.6 °F /  14.8 °C 30.4 in /  1028.0 hPa Calm     80 % 0 in /  0.0 mm
22:45 64.8 °F /  18.2 °C 58.5 °F /  14.7 °C 30.4 in /  1028.0 hPa Calm     80 % 0 in /  0.0 mm
22:50 64.8 °F /  18.2 °C 58.5 °F /  14.7 °C 30.4 in /  1028.0 hPa Calm     80 % 0 in /  0.0 mm
22:55 64.8 °F /  18.2 °C 58.5 °F /  14.7 °C 30.4 in /  1028.0 hPa Calm     80 % 0 in /  0.0 mm
23:00 64.6 °F /  18.1 °C 58.3 °F /  14.6 °C 30.4 in /  1028.0 hPa Calm     80 % 0 in /  0.0 mm
23:05 64.6 °F /  18.1 °C 58.3 °F /  14.6 °C 30.4 in /  1028.0 hPa Calm     80 % 0 in /  0.0 mm
23:10 64.6 °F /  18.1 °C 58.3 °F /  14.6 °C 30.4 in /  1028.0 hPa Calm     80 % 0 in /  0.0 mm
23:15 64.4 °F /  18.0 °C 58.5 °F /  14.7 °C 30.4 in /  1028.0 hPa Calm     81 % 0 in /  0.0 mm
23:20 64.4 °F /  18.0 °C 58.5 °F /  14.7 °C 30.4 in /  1028.0 hPa Calm     81 % 0 in /  0.0 mm
23:25 64.4 °F /  18.0 °C 58.5 °F /  14.7 °C 30.4 in /  1028.0 hPa Calm     81 % 0 in /  0.0 mm
23:30 64.4 °F /  18.0 °C 58.5 °F /  14.7 °C 30.4 in /  1028.0 hPa Calm     81 % 0 in /  0.0 mm
23:35 64.4 °F /  18.0 °C 58.5 °F /  14.7 °C 30.4 in /  1028.0 hPa Calm     81 % 0 in /  0.0 mm
23:40 64.4 °F /  18.0 °C 58.8 °F /  14.9 °C 30.4 in /  1028.0 hPa Calm     82 % 0 in /  0.0 mm
23:45 64 °F /  17.8 °C 58.5 °F /  14.7 °C 30.4 in /  1028.0 hPa Calm     82 % 0 in /  0.0 mm
23:50 64 °F /  17.8 °C 58.5 °F /  14.7 °C 30.4 in /  1028.0 hPa Calm     82 % 0 in /  0.0 mm
23:55 63.9 °F /  17.7 °C 58.3 °F /  14.6 °C 30.4 in /  1028.0 hPa Calm     82 % 0 in /  0.0 mm
Meteo Sesrovires
Elogis d' Weather Underground - 4 mb

Guio original per  Jim McMurry - jmcmurry@mwt.net Adaptat per a la plantilla per  Wim van der Kuil - Leuven-Template.eu

Trobareu la nostra informacio del temps tambe a:

Weather Underground

AWEKAS